Time;durP1;ratioP1;P1;durP2;ratioP2;P2;SDS_P1;SDS_P2;PMS_P1;PMS_P2;Temp;Humidity;BMP_temperature;BMP_pressure;BME280_temperature;BME280_humidity;BME280_pressure;Samples;Min_cycle;Max_cycle;Signal;HPM_P1;HPM_P2
2023/10/08 00:02:22;;;;;;;;;;;21.00;53.40;;;;;;5014077;28;19952;-66
2023/10/08 00:04:50;;;;;;;;;;;21.00;53.40;;;;;;5014720;28;19921;-66
2023/10/08 00:07:21;;;;;;;;;;;21.00;53.50;;;;;;5014500;28;19932;-66
2023/10/08 00:09:48;;;;;;;;;;;21.00;53.40;;;;;;5012783;28;20604;-66
2023/10/08 00:12:16;;;;;;;;;;;21.00;53.40;;;;;;5015236;28;20278;-66
2023/10/08 00:14:44;;;;;;;;;;;21.00;53.30;;;;;;5011934;28;19921;-65
2023/10/08 00:17:13;;;;;;;;;;;21.00;53.30;;;;;;5032843;28;19925;-66
2023/10/08 00:19:42;;;;;;;;;;;21.00;53.30;;;;;;5010320;28;19920;-66
2023/10/08 00:22:09;;;;;;;;;;;21.00;53.30;;;;;;5030758;28;20011;-66
2023/10/08 00:24:40;;;;;;;;;;;21.00;53.40;;;;;;5005712;28;19956;-66
2023/10/08 00:27:07;;;;;;;;;;;21.00;53.30;;;;;;5008634;28;19925;-66
2023/10/08 00:29:34;;;;;;;;;;;21.00;53.30;;;;;;5029435;28;19921;-66
2023/10/08 00:32:11;;;;;;;;;;;21.00;53.30;;;;;;5014634;28;19971;-66
2023/10/08 00:34:41;;;;;;;;;;;21.00;53.30;;;;;;5027601;28;19921;-66
2023/10/08 00:37:08;;;;;;;;;;;21.00;53.30;;;;;;5014151;28;19933;-66
2023/10/08 00:39:37;;;;;;;;;;;21.00;53.30;;;;;;5031319;28;19921;-66
2023/10/08 00:42:07;;;;;;;;;;;21.00;53.30;;;;;;5013394;28;20302;-66
2023/10/08 00:44:38;;;;;;;;;;;21.00;53.30;;;;;;5024951;28;19982;-66
2023/10/08 00:47:06;;;;;;;;;;;21.00;53.30;;;;;;5013400;28;19931;-66
2023/10/08 00:50:03;;;;;;;;;;;21.00;53.20;;;;;;5028761;28;19921;-66
2023/10/08 00:52:39;;;;;;;;;;;21.00;53.20;;;;;;5029618;28;20321;-66
2023/10/08 00:55:21;;;;;;;;;;;21.00;53.20;;;;;;5014378;28;19921;-66
2023/10/08 00:57:49;;;;;;;;;;;21.00;53.20;;;;;;5013963;28;19928;-66
2023/10/08 01:00:21;;;;;;;;;;;21.00;53.20;;;;;;5006224;28;19944;-66
2023/10/08 01:02:49;;;;;;;;;;;21.00;53.20;;;;;;5014330;28;19921;-65
2023/10/08 01:05:18;;;;;;;;;;;21.00;53.20;;;;;;5030938;28;19975;-66
2023/10/08 01:07:48;;;;;;;;;;;21.00;53.30;;;;;;5013080;28;20003;-66
2023/10/08 01:10:19;;;;;;;;;;;21.00;53.20;;;;;;5031297;28;19921;-66
2023/10/08 01:12:54;;;;;;;;;;;21.00;53.20;;;;;;5012958;28;19921;-66
2023/10/08 01:15:28;;;;;;;;;;;21.00;53.20;;;;;;5012865;28;19975;-66
2023/10/08 01:17:59;;;;;;;;;;;21.00;53.20;;;;;;5008217;28;19928;-66
2023/10/08 01:20:33;;;;;;;;;;;21.00;53.30;;;;;;5030654;28;19927;-66
2023/10/08 01:23:03;;;;;;;;;;;20.90;53.10;;;;;;5009463;28;20132;-66
2023/10/08 01:25:31;;;;;;;;;;;21.00;53.10;;;;;;5013228;28;19996;-66
2023/10/08 01:28:00;;;;;;;;;;;21.00;53.10;;;;;;5014444;28;19922;-66
2023/10/08 01:30:34;;;;;;;;;;;21.00;53.10;;;;;;5013312;28;19964;-65
2023/10/08 01:33:03;;;;;;;;;;;21.00;53.20;;;;;;5014170;28;19976;-66
2023/10/08 01:35:31;;;;;;;;;;;21.00;53.20;;;;;;5026796;28;20266;-66
2023/10/08 01:37:59;;;;;;;;;;;20.90;53.00;;;;;;5014138;28;19928;-66
2023/10/08 01:40:26;;;;;;;;;;;21.00;53.10;;;;;;5012482;28;19925;-66
2023/10/08 01:42:54;;;;;;;;;;;20.90;53.00;;;;;;5014179;28;19921;-66
2023/10/08 01:45:24;;;;;;;;;;;20.90;53.00;;;;;;5030938;28;19928;-66
2023/10/08 01:47:54;;;;;;;;;;;20.90;53.10;;;;;;5013765;28;19921;-66
2023/10/08 01:50:22;;;;;;;;;;;20.90;53.10;;;;;;5013580;28;19921;-66
2023/10/08 01:52:48;;;;;;;;;;;20.90;53.10;;;;;;5012933;28;19940;-66
2023/10/08 01:55:19;;;;;;;;;;;20.90;53.00;;;;;;5032322;28;19921;-66
2023/10/08 01:57:45;;;;;;;;;;;20.90;53.00;;;;;;5010717;28;19928;-66
2023/10/08 02:00:18;;;;;;;;;;;20.90;53.00;;;;;;5035495;28;19921;-66
2023/10/08 02:02:45;;;;;;;;;;;20.90;53.00;;;;;;5017540;28;19979;-66
2023/10/08 02:05:14;;;;;;;;;;;20.90;53.00;;;;;;5016487;28;19921;-66
2023/10/08 02:07:44;;;;;;;;;;;21.00;53.10;;;;;;5035182;28;19988;-66
2023/10/08 02:10:11;;;;;;;;;;;20.90;53.00;;;;;;5035212;28;20355;-66
2023/10/08 02:12:37;;;;;;;;;;;20.90;53.00;;;;;;5015630;28;19927;-66
2023/10/08 02:15:05;;;;;;;;;;;20.90;53.00;;;;;;5030969;28;19925;-66
2023/10/08 02:17:33;;;;;;;;;;;20.90;53.00;;;;;;5017838;28;19921;-66
2023/10/08 02:19:59;;;;;;;;;;;20.90;53.00;;;;;;5017562;28;19952;-66
2023/10/08 02:22:27;;;;;;;;;;;20.90;53.00;;;;;;5034803;28;19971;-66
2023/10/08 02:24:54;;;;;;;;;;;20.90;53.00;;;;;;5035215;28;19928;-66
2023/10/08 02:27:22;;;;;;;;;;;20.90;53.60;;;;;;5016877;28;20239;-66
2023/10/08 02:29:50;;;;;;;;;;;21.00;53.10;;;;;;5033896;28;19929;-66
2023/10/08 02:32:17;;;;;;;;;;;20.90;53.00;;;;;;5015940;28;20518;-66
2023/10/08 02:34:46;;;;;;;;;;;20.90;53.00;;;;;;5012762;28;19929;-66
2023/10/08 02:37:15;;;;;;;;;;;21.00;53.10;;;;;;5015824;28;19921;-66
2023/10/08 02:39:41;;;;;;;;;;;20.90;53.00;;;;;;5034040;28;19932;-66
2023/10/08 02:42:10;;;;;;;;;;;21.00;53.10;;;;;;5015677;28;19999;-66
2023/10/08 02:44:41;;;;;;;;;;;21.00;53.10;;;;;;5015765;28;19971;-66
2023/10/08 02:47:09;;;;;;;;;;;21.00;53.10;;;;;;5011374;28;20352;-66
2023/10/08 02:49:36;;;;;;;;;;;20.90;53.00;;;;;;5014797;28;20278;-65
2023/10/08 02:52:05;;;;;;;;;;;21.00;53.00;;;;;;5033562;28;19969;-66
2023/10/08 02:54:36;;;;;;;;;;;21.00;52.90;;;;;;5016155;28;19948;-65
2023/10/08 02:57:03;;;;;;;;;;;20.90;52.90;;;;;;5016378;28;20374;-65
2023/10/08 02:59:38;;;;;;;;;;;20.90;52.90;;;;;;5016623;28;19967;-65
2023/10/08 03:02:13;;;;;;;;;;;20.90;52.90;;;;;;5016780;28;19922;-66
2023/10/08 03:04:40;;;;;;;;;;;20.90;52.90;;;;;;5013102;28;20010;-66
2023/10/08 03:07:11;;;;;;;;;;;20.90;52.90;;;;;;5015672;28;19921;-66
2023/10/08 03:09:42;;;;;;;;;;;20.90;52.90;;;;;;5014027;28;19921;-65
2023/10/08 03:12:09;;;;;;;;;;;20.90;52.90;;;;;;5015821;28;20009;-66
2023/10/08 03:14:48;;;;;;;;;;;20.90;52.90;;;;;;5015767;28;19921;-66
2023/10/08 03:17:19;;;;;;;;;;;20.90;52.90;;;;;;5014528;28;19921;-66
2023/10/08 03:19:46;;;;;;;;;;;20.90;52.90;;;;;;5011905;28;19925;-66
2023/10/08 03:22:19;;;;;;;;;;;20.90;52.80;;;;;;5028653;28;19922;-66
2023/10/08 03:24:48;;;;;;;;;;;20.90;52.80;;;;;;5015678;28;19925;-66
2023/10/08 03:27:20;;;;;;;;;;;20.90;52.80;;;;;;5032844;28;19921;-65
2023/10/08 03:29:47;;;;;;;;;;;20.90;52.80;;;;;;5014997;28;19960;-66
2023/10/08 03:32:15;;;;;;;;;;;20.90;52.80;;;;;;5015634;28;20004;-66
2023/10/08 03:34:46;;;;;;;;;;;20.90;52.80;;;;;;5014119;28;19925;-66
2023/10/08 03:37:19;;;;;;;;;;;20.90;52.80;;;;;;5027300;28;19921;-66
2023/10/08 03:40:00;;;;;;;;;;;20.90;52.80;;;;;;5014970;28;19921;-66
2023/10/08 03:42:33;;;;;;;;;;;20.90;52.80;;;;;;5015862;28;19921;-66
2023/10/08 03:45:09;;;;;;;;;;;20.90;52.80;;;;;;5016196;28;19925;-66
2023/10/08 03:47:37;;;;;;;;;;;20.90;52.80;;;;;;5032909;28;19929;-66
2023/10/08 03:50:06;;;;;;;;;;;20.90;52.90;;;;;;5016114;28;19921;-66
2023/10/08 03:52:37;;;;;;;;;;;20.90;52.80;;;;;;5033436;28;20394;-66
2023/10/08 03:55:13;;;;;;;;;;;20.90;52.80;;;;;;5010697;28;19943;-66
2023/10/08 03:57:42;;;;;;;;;;;20.90;52.80;;;;;;5031514;28;20341;-66
2023/10/08 04:00:13;;;;;;;;;;;20.90;52.70;;;;;;5015549;28;19972;-66
2023/10/08 04:02:41;;;;;;;;;;;20.90;52.70;;;;;;5015120;28;19929;-66
2023/10/08 04:05:19;;;;;;;;;;;20.90;52.70;;;;;;5015804;28;19998;-66
2023/10/08 04:08:05;;;;;;;;;;;20.90;52.70;;;;;;5015877;28;20302;-66
2023/10/08 04:11:07;;;;;;;;;;;20.90;52.70;;;;;;5032887;28;20019;-66
2023/10/08 04:13:28;;;;;;;;;;;20.90;52.70;;;;;;5029440;28;20282;-66
2023/10/08 04:15:55;;;;;;;;;;;20.90;52.60;;;;;;5026320;28;19953;-66
2023/10/08 04:18:21;;;;;;;;;;;20.90;52.70;;;;;;5031077;28;19970;-66
2023/10/08 04:21:00;;;;;;;;;;;20.90;52.70;;;;;;5014961;28;19921;-66
2023/10/08 04:23:27;;;;;;;;;;;20.90;52.70;;;;;;5026383;28;19921;-66
2023/10/08 04:25:55;;;;;;;;;;;20.90;52.60;;;;;;5013566;28;19936;-66
2023/10/08 04:28:22;;;;;;;;;;;20.90;52.60;;;;;;5016687;28;19925;-66
2023/10/08 04:30:50;;;;;;;;;;;20.90;52.60;;;;;;5014008;28;19952;-66
2023/10/08 04:33:19;;;;;;;;;;;20.90;52.60;;;;;;5014552;28;20016;-66
2023/10/08 04:35:51;;;;;;;;;;;20.90;52.60;;;;;;5007370;28;19933;-66
2023/10/08 04:38:21;;;;;;;;;;;20.90;52.60;;;;;;5015126;28;20359;-66
2023/10/08 04:40:52;;;;;;;;;;;20.90;52.60;;;;;;5015257;28;19983;-66
2023/10/08 04:43:24;;;;;;;;;;;20.90;52.60;;;;;;5014210;28;19925;-66
2023/10/08 04:45:51;;;;;;;;;;;20.90;52.50;;;;;;5003338;28;19926;-66
2023/10/08 04:48:20;;;;;;;;;;;20.90;52.50;;;;;;5010619;28;20314;-66
2023/10/08 04:50:57;;;;;;;;;;;20.90;52.50;;;;;;5014250;28;20271;-66
2023/10/08 04:53:31;;;;;;;;;;;20.90;52.50;;;;;;5013804;28;19921;-66
2023/10/08 04:55:59;;;;;;;;;;;20.90;52.50;;;;;;5031546;28;20024;-66
2023/10/08 04:58:33;;;;;;;;;;;20.90;52.50;;;;;;5013661;28;20363;-66
2023/10/08 05:01:17;;;;;;;;;;;20.90;52.50;;;;;;5009620;28;20421;-66
2023/10/08 05:03:55;;;;;;;;;;;20.90;53.10;;;;;;5029625;28;19965;-66
2023/10/08 05:06:39;;;;;;;;;;;20.90;52.40;;;;;;5013400;28;19929;-66
2023/10/08 05:09:12;;;;;;;;;;;20.90;52.40;;;;;;5008669;28;19921;-66
2023/10/08 05:11:46;;;;;;;;;;;20.90;52.40;;;;;;5014120;28;19921;-66
2023/10/08 05:14:28;;;;;;;;;;;20.90;52.40;;;;;;5014454;28;19960;-66
2023/10/08 05:17:00;;;;;;;;;;;20.90;52.40;;;;;;5031297;28;19971;-66
2023/10/08 05:19:48;;;;;;;;;;;20.90;52.40;;;;;;5013860;28;19921;-66
2023/10/08 05:22:33;;;;;;;;;;;20.90;52.30;;;;;;5014440;28;19979;-66
2023/10/08 05:25:07;;;;;;;;;;;20.90;52.30;;;;;;5024592;28;20371;-66
2023/10/08 05:30:28;;;;;;;;;;;20.90;52.30;;;;;;5013223;28;20019;-66
2023/10/08 05:33:08;;;;;;;;;;;20.90;52.30;;;;;;5013996;28;20012;-66
2023/10/08 05:38:22;;;;;;;;;;;20.90;52.20;;;;;;5025488;28;19979;-66
2023/10/08 05:44:13;;;;;;;;;;;20.90;52.20;;;;;;5010105;28;20063;-65
2023/10/08 05:49:53;;;;;;;;;;;20.90;52.20;;;;;;5015668;28;19932;-66
2023/10/08 05:52:41;;;;;;;;;;;20.80;52.10;;;;;;5013749;28;20287;-66
2023/10/08 05:58:04;;;;;;;;;;;20.80;52.10;;;;;;5012833;28;20003;-66
2023/10/08 06:06:21;;;;;;;;;;;20.90;52.10;;;;;;5009100;28;20359;-66
2023/10/08 06:08:49;;;;;;;;;;;20.90;52.10;;;;;;5025928;28;19930;-66
2023/10/08 06:11:27;;;;;;;;;;;20.90;52.10;;;;;;5028673;28;19921;-66
2023/10/08 06:14:00;;;;;;;;;;;20.80;52.00;;;;;;5005885;28;19953;-66
2023/10/08 06:16:31;;;;;;;;;;;20.80;52.00;;;;;;5007807;28;19928;-66
2023/10/08 06:18:59;;;;;;;;;;;20.80;51.90;;;;;;5012211;28;19928;-66
2023/10/08 06:21:26;;;;;;;;;;;20.80;51.90;;;;;;5006332;28;20282;-65
2023/10/08 06:23:56;;;;;;;;;;;20.80;52.00;;;;;;5026250;28;20464;-65
2023/10/08 06:26:25;;;;;;;;;;;20.80;51.90;;;;;;5010095;28;19939;-66
2023/10/08 06:28:57;;;;;;;;;;;20.80;51.90;;;;;;5011933;28;19921;-65
2023/10/08 06:31:24;;;;;;;;;;;20.80;51.90;;;;;;5028045;28;19979;-65
2023/10/08 06:33:52;;;;;;;;;;;20.80;51.90;;;;;;5010814;28;20199;-68
2023/10/08 06:36:24;;;;;;;;;;;20.80;51.90;;;;;;5010608;28;19933;-66
2023/10/08 06:38:51;;;;;;;;;;;20.80;51.90;;;;;;5010615;28;20033;-66
2023/10/08 06:41:18;;;;;;;;;;;20.80;51.80;;;;;;5011224;28;20397;-66
2023/10/08 06:43:48;;;;;;;;;;;20.80;51.80;;;;;;5014610;28;19928;-66
2023/10/08 06:46:15;;;;;;;;;;;20.80;51.90;;;;;;5013428;28;20414;-66
2023/10/08 06:48:43;;;;;;;;;;;20.80;51.80;;;;;;4998433;28;19952;-66
2023/10/08 06:51:12;;;;;;;;;;;20.80;51.80;;;;;;5013621;28;19921;-66
2023/10/08 06:53:41;;;;;;;;;;;20.80;51.80;;;;;;5031851;28;19921;-66
2023/10/08 06:56:09;;;;;;;;;;;20.80;51.80;;;;;;5032857;28;19940;-66
2023/10/08 06:58:36;;;;;;;;;;;20.80;51.80;;;;;;5015665;28;19936;-66
2023/10/08 07:01:05;;;;;;;;;;;20.80;51.80;;;;;;5034253;28;19925;-66
2023/10/08 07:03:32;;;;;;;;;;;20.80;51.80;;;;;;5015666;28;19960;-66
2023/10/08 07:05:59;;;;;;;;;;;20.80;51.80;;;;;;5015437;28;20269;-66
2023/10/08 07:08:26;;;;;;;;;;;20.80;51.80;;;;;;5015571;28;20020;-66
2023/10/08 07:10:56;;;;;;;;;;;20.80;51.90;;;;;;5032434;28;20305;-66
2023/10/08 07:13:24;;;;;;;;;;;20.80;51.90;;;;;;5016240;28;19925;-66
2023/10/08 07:15:51;;;;;;;;;;;20.80;51.90;;;;;;5014567;28;20301;-66
2023/10/08 07:18:24;;;;;;;;;;;20.80;51.90;;;;;;5032696;28;19921;-65
2023/10/08 07:20:53;;;;;;;;;;;20.80;51.90;;;;;;5024865;28;19921;-66
2023/10/08 07:23:24;;;;;;;;;;;20.80;51.90;;;;;;5014361;28;19925;-66
2023/10/08 07:26:10;;;;;;;;;;;20.80;51.90;;;;;;5007655;28;19979;-66
2023/10/08 07:28:39;;;;;;;;;;;20.80;51.90;;;;;;5013555;28;19921;-66
2023/10/08 07:31:09;;;;;;;;;;;20.80;51.90;;;;;;5010969;28;19928;-65
2023/10/08 07:33:36;;;;;;;;;;;20.80;51.90;;;;;;5015113;28;20295;-66
2023/10/08 07:36:11;;;;;;;;;;;20.80;51.90;;;;;;5014678;28;19967;-66
2023/10/08 07:38:38;;;;;;;;;;;20.80;51.90;;;;;;5013108;28;19921;-66
2023/10/08 07:41:07;;;;;;;;;;;20.80;51.90;;;;;;5015133;28;19921;-66
2023/10/08 07:43:33;;;;;;;;;;;20.80;52.00;;;;;;5014738;28;19925;-66
2023/10/08 07:46:00;;;;;;;;;;;20.80;52.00;;;;;;5029590;28;19933;-66
2023/10/08 07:48:29;;;;;;;;;;;20.80;52.00;;;;;;5015095;28;19928;-65
2023/10/08 07:50:56;;;;;;;;;;;20.80;52.00;;;;;;5014604;28;19925;-66
2023/10/08 07:53:24;;;;;;;;;;;20.80;52.00;;;;;;5031378;28;19960;-66
2023/10/08 07:55:51;;;;;;;;;;;20.80;52.00;;;;;;5010238;28;20015;-66
2023/10/08 07:58:19;;;;;;;;;;;20.80;52.00;;;;;;5030330;28;19925;-66
2023/10/08 08:00:52;;;;;;;;;;;20.80;52.00;;;;;;5014926;28;19927;-66
2023/10/08 08:03:22;;;;;;;;;;;20.80;52.10;;;;;;5009929;28;19960;-66
2023/10/08 08:05:52;;;;;;;;;;;20.80;52.10;;;;;;5013117;28;19929;-66
2023/10/08 08:08:22;;;;;;;;;;;20.90;52.00;;;;;;5007484;28;20435;-66
2023/10/08 08:10:49;;;;;;;;;;;20.80;51.70;;;;;;5012054;28;19967;-66
2023/10/08 08:13:20;;;;;;;;;;;20.80;51.70;;;;;;5032968;28;19961;-66
2023/10/08 08:15:50;;;;;;;;;;;20.80;51.70;;;;;;5014693;28;19928;-66
2023/10/08 08:18:22;;;;;;;;;;;20.80;51.60;;;;;;5026879;28;19921;-66
2023/10/08 08:20:49;;;;;;;;;;;20.80;51.10;;;;;;5013375;28;20455;-66
2023/10/08 08:23:17;;;;;;;;;;;20.80;50.80;;;;;;5009254;28;19921;-65
2023/10/08 08:25:55;;;;;;;;;;;20.80;50.30;;;;;;5030284;28;19929;-66
2023/10/08 08:28:24;;;;;;;;;;;20.70;49.30;;;;;;5013731;28;19921;-66
2023/10/08 08:30:55;;;;;;;;;;;20.70;49.40;;;;;;5013663;28;19925;-66
2023/10/08 08:33:23;;;;;;;;;;;20.70;49.20;;;;;;5012719;28;19928;-66
2023/10/08 08:35:58;;;;;;;;;;;20.70;49.30;;;;;;5019025;28;19974;-66
2023/10/08 08:38:25;;;;;;;;;;;20.60;49.30;;;;;;5010557;28;20382;-66
2023/10/08 08:40:51;;;;;;;;;;;20.60;49.50;;;;;;5006179;28;19933;-66
2023/10/08 08:43:18;;;;;;;;;;;20.60;49.70;;;;;;5009030;28;20382;-66
2023/10/08 08:45:49;;;;;;;;;;;20.70;49.90;;;;;;5012924;28;19921;-67
2023/10/08 08:48:17;;;;;;;;;;;20.70;49.90;;;;;;5026549;28;19940;-66
2023/10/08 08:50:44;;;;;;;;;;;20.70;49.90;;;;;;5011318;28;20421;-66
2023/10/08 08:53:11;;;;;;;;;;;20.70;50.10;;;;;;5031609;28;19921;-66
2023/10/08 08:55:39;;;;;;;;;;;20.70;50.20;;;;;;5013572;28;20008;-66
2023/10/08 08:58:11;;;;;;;;;;;20.70;50.10;;;;;;5013666;28;19921;-66
2023/10/08 09:00:38;;;;;;;;;;;20.70;49.80;;;;;;5014000;28;19921;-66
2023/10/08 09:03:07;;;;;;;;;;;20.70;49.60;;;;;;5008971;28;20331;-66
2023/10/08 09:05:36;;;;;;;;;;;20.70;49.50;;;;;;5010330;28;19921;-66
2023/10/08 09:08:04;;;;;;;;;;;20.70;49.30;;;;;;5011963;28;19929;-66
2023/10/08 09:10:36;;;;;;;;;;;20.70;49.10;;;;;;5029554;28;19921;-66
2023/10/08 09:13:04;;;;;;;;;;;20.70;49.20;;;;;;5012723;28;20044;-67
2023/10/08 09:15:32;;;;;;;;;;;20.70;48.90;;;;;;5011230;28;19921;-66
2023/10/08 09:18:00;;;;;;;;;;;20.70;48.80;;;;;;5011261;28;19982;-66
2023/10/08 09:20:27;;;;;;;;;;;20.70;48.70;;;;;;5011620;28;19948;-66
2023/10/08 09:23:11;;;;;;;;;;;20.70;48.70;;;;;;5009117;28;20008;-66
2023/10/08 09:25:38;;;;;;;;;;;20.70;48.90;;;;;;5006093;28;19995;-66
2023/10/08 09:28:07;;;;;;;;;;;20.70;48.40;;;;;;5028716;28;19929;-66
2023/10/08 09:30:37;;;;;;;;;;;20.70;47.80;;;;;;5010438;28;19921;-67
2023/10/08 09:33:05;;;;;;;;;;;20.60;47.00;;;;;;5029495;28;20039;-66
2023/10/08 09:35:32;;;;;;;;;;;20.60;46.90;;;;;;5010281;28;19975;-67
2023/10/08 09:37:59;;;;;;;;;;;20.60;45.80;;;;;;5011542;28;20370;-67
2023/10/08 09:40:28;;;;;;;;;;;20.50;45.70;;;;;;5027375;28;19967;-67
2023/10/08 09:42:55;;;;;;;;;;;20.50;45.40;;;;;;5007513;28;20366;-66
2023/10/08 09:45:21;;;;;;;;;;;20.40;45.00;;;;;;5011993;28;19928;-67
2023/10/08 09:47:51;;;;;;;;;;;20.40;44.80;;;;;;5011454;28;19928;-67
2023/10/08 09:50:18;;;;;;;;;;;20.40;44.70;;;;;;5006361;28;20379;-66
2023/10/08 09:52:48;;;;;;;;;;;20.30;44.90;;;;;;5028251;28;19983;-67
2023/10/08 09:55:15;;;;;;;;;;;20.30;45.10;;;;;;5009267;28;19921;-65
2023/10/08 09:57:43;;;;;;;;;;;20.30;44.70;;;;;;5010326;28;20339;-65
2023/10/08 10:00:14;;;;;;;;;;;20.20;44.50;;;;;;5036195;28;19925;-65
2023/10/08 10:02:42;;;;;;;;;;;20.20;44.20;;;;;;5011578;28;19925;-65
2023/10/08 10:05:11;;;;;;;;;;;20.20;43.60;;;;;;5006103;28;19936;-65
2023/10/08 10:07:40;;;;;;;;;;;20.20;43.40;;;;;;5008082;28;19980;-65
2023/10/08 10:10:13;;;;;;;;;;;20.10;43.20;;;;;;5029232;28;19929;-65
2023/10/08 10:12:40;;;;;;;;;;;20.10;42.90;;;;;;5004729;28;19932;-65
2023/10/08 10:15:10;;;;;;;;;;;20.00;42.70;;;;;;5010266;28;19921;-65
2023/10/08 10:17:37;;;;;;;;;;;20.00;42.10;;;;;;5030879;28;19940;-64
2023/10/08 10:20:06;;;;;;;;;;;19.90;42.20;;;;;;5010605;28;19937;-65
2023/10/08 10:22:34;;;;;;;;;;;19.90;42.40;;;;;;5016032;28;19987;-65
2023/10/08 10:25:03;;;;;;;;;;;19.90;42.60;;;;;;5013803;28;19976;-65
2023/10/08 10:27:30;;;;;;;;;;;19.80;42.70;;;;;;5011098;28;20379;-65
2023/10/08 10:30:03;;;;;;;;;;;19.80;42.80;;;;;;5012193;28;19940;-65
2023/10/08 10:32:31;;;;;;;;;;;19.80;43.10;;;;;;5009788;28;19983;-65
2023/10/08 10:34:59;;;;;;;;;;;19.80;43.10;;;;;;5012620;28;19959;-65
2023/10/08 10:37:32;;;;;;;;;;;19.80;43.10;;;;;;5014326;28;19921;-67
2023/10/08 10:40:00;;;;;;;;;;;19.80;43.20;;;;;;5006824;28;19921;-65
2023/10/08 10:42:28;;;;;;;;;;;19.70;43.30;;;;;;5014051;28;19921;-64
2023/10/08 10:44:56;;;;;;;;;;;19.70;43.50;;;;;;5011145;28;19939;-65
2023/10/08 10:47:42;;;;;;;;;;;19.70;43.50;;;;;;5031805;28;19975;-65
2023/10/08 10:50:31;;;;;;;;;;;19.70;43.60;;;;;;4994847;28;19921;-64
2023/10/08 10:52:57;;;;;;;;;;;19.70;44.00;;;;;;5015069;28;20169;-64
2023/10/08 10:55:31;;;;;;;;;;;19.70;43.90;;;;;;5031538;28;20015;-64
2023/10/08 10:58:03;;;;;;;;;;;19.70;43.70;;;;;;5010551;28;19975;-64
2023/10/08 11:00:56;;;;;;;;;;;19.70;43.50;;;;;;5031904;28;20251;-64
2023/10/08 11:03:23;;;;;;;;;;;19.70;43.50;;;;;;5028244;28;19928;-64
2023/10/08 11:05:54;;;;;;;;;;;19.70;43.70;;;;;;5028188;28;19921;-64
2023/10/08 11:08:23;;;;;;;;;;;19.70;43.90;;;;;;5013108;28;19929;-64
2023/10/08 11:10:51;;;;;;;;;;;19.70;43.90;;;;;;5010389;28;19941;-64
2023/10/08 11:13:19;;;;;;;;;;;19.70;43.80;;;;;;5013447;28;19921;-64
2023/10/08 11:15:49;;;;;;;;;;;19.60;43.80;;;;;;5012469;28;19984;-64
2023/10/08 11:18:16;;;;;;;;;;;19.60;43.50;;;;;;5011157;28;19928;-64
2023/10/08 11:20:44;;;;;;;;;;;19.60;43.40;;;;;;5011537;28;19925;-64
2023/10/08 11:23:21;;;;;;;;;;;19.60;43.60;;;;;;5009626;28;19925;-64
2023/10/08 11:25:54;;;;;;;;;;;19.60;43.80;;;;;;5028998;28;19922;-64
2023/10/08 11:28:22;;;;;;;;;;;19.60;43.90;;;;;;5011321;28;19928;-64
2023/10/08 11:30:51;;;;;;;;;;;19.60;43.90;;;;;;5005492;28;20319;-67
2023/10/08 11:33:18;;;;;;;;;;;19.60;44.20;;;;;;4990579;28;19922;-67
2023/10/08 11:35:55;;;;;;;;;;;19.60;44.50;;;;;;5026924;28;19968;-65
2023/10/08 11:38:27;;;;;;;;;;;19.60;44.50;;;;;;5019462;28;19948;-67
2023/10/08 11:40:56;;;;;;;;;;;19.60;44.20;;;;;;5006956;28;19967;-67
2023/10/08 11:43:23;;;;;;;;;;;19.70;44.10;;;;;;5011198;28;19975;-68
2023/10/08 11:45:50;;;;;;;;;;;19.70;44.10;;;;;;5026921;28;19932;-66
2023/10/08 11:48:25;;;;;;;;;;;19.70;44.10;;;;;;5011250;28;19933;-67
2023/10/08 11:50:52;;;;;;;;;;;19.70;44.30;;;;;;5011610;28;19928;-66
2023/10/08 11:53:20;;;;;;;;;;;19.70;44.60;;;;;;4994604;28;20057;-67
2023/10/08 11:55:49;;;;;;;;;;;19.80;44.70;;;;;;5012260;28;19975;-67
2023/10/08 11:58:19;;;;;;;;;;;19.80;44.80;;;;;;5011716;28;19936;-66
2023/10/08 12:00:52;;;;;;;;;;;19.80;44.70;;;;;;5011012;28;19921;-67
2023/10/08 12:03:18;;;;;;;;;;;19.80;44.80;;;;;;5028228;28;19921;-67
2023/10/08 12:05:48;;;;;;;;;;;19.90;44.60;;;;;;5028115;28;20215;-65
2023/10/08 12:08:16;;;;;;;;;;;19.80;44.30;;;;;;5008817;28;19971;-68
2023/10/08 12:10:43;;;;;;;;;;;19.90;44.50;;;;;;5028268;28;19979;-66
2023/10/08 12:13:11;;;;;;;;;;;19.80;44.30;;;;;;5030073;28;19928;-65
2023/10/08 12:15:40;;;;;;;;;;;19.90;44.50;;;;;;5029046;28;20638;-68
2023/10/08 12:18:15;;;;;;;;;;;19.80;44.50;;;;;;4995593;28;20028;-67
2023/10/08 12:20:43;;;;;;;;;;;19.80;44.70;;;;;;5029792;28;20375;-68
2023/10/08 12:23:10;;;;;;;;;;;19.90;44.70;;;;;;5029236;28;19921;-68
2023/10/08 12:25:37;;;;;;;;;;;19.90;44.80;;;;;;5009268;28;19921;-67
2023/10/08 12:28:04;;;;;;;;;;;19.90;44.90;;;;;;5029816;28;19925;-68
2023/10/08 12:30:34;;;;;;;;;;;19.90;45.00;;;;;;5010681;28;19925;-68
2023/10/08 12:33:01;;;;;;;;;;;19.90;45.10;;;;;;5011871;28;19921;-68
2023/10/08 12:35:29;;;;;;;;;;;19.90;45.10;;;;;;5027866;28;19928;-68
2023/10/08 12:37:56;;;;;;;;;;;19.90;45.10;;;;;;5010177;28;19925;-67
2023/10/08 12:40:23;;;;;;;;;;;19.90;45.10;;;;;;5010555;28;19968;-68
2023/10/08 12:42:50;;;;;;;;;;;19.90;45.20;;;;;;5008700;28;20052;-67
2023/10/08 12:45:20;;;;;;;;;;;19.90;45.30;;;;;;5009830;28;19924;-67
2023/10/08 12:47:50;;;;;;;;;;;20.00;45.40;;;;;;5009683;28;20263;-67
2023/10/08 12:50:17;;;;;;;;;;;20.00;45.40;;;;;;5009115;28;19960;-66
2023/10/08 12:52:52;;;;;;;;;;;20.00;45.30;;;;;;5010304;28;19932;-65
2023/10/08 12:55:23;;;;;;;;;;;20.00;45.10;;;;;;5029544;28;19960;-67
2023/10/08 12:57:55;;;;;;;;;;;20.00;45.00;;;;;;5006620;28;19994;-68
2023/10/08 13:00:24;;;;;;;;;;;20.00;44.70;;;;;;5004648;28;19921;-66
2023/10/08 13:02:53;;;;;;;;;;;20.00;44.80;;;;;;5019626;28;19936;-65
2023/10/08 13:05:26;;;;;;;;;;;20.00;45.40;;;;;;5006278;28;19932;-65
2023/10/08 13:07:54;;;;;;;;;;;20.10;44.90;;;;;;5008102;28;19957;-65
2023/10/08 13:10:21;;;;;;;;;;;20.00;44.90;;;;;;5028700;28;20012;-65
2023/10/08 13:12:48;;;;;;;;;;;20.00;45.10;;;;;;5009343;28;20011;-65
2023/10/08 13:15:15;;;;;;;;;;;20.10;45.30;;;;;;5007262;28;19921;-66
2023/10/08 13:17:42;;;;;;;;;;;20.10;45.40;;;;;;5010665;28;19921;-65
2023/10/08 13:20:12;;;;;;;;;;;20.10;45.50;;;;;;5029684;28;19968;-66
2023/10/08 13:22:38;;;;;;;;;;;20.10;45.60;;;;;;5009454;28;20477;-65
2023/10/08 13:25:06;;;;;;;;;;;20.20;45.70;;;;;;5012495;28;19936;-65
2023/10/08 13:27:33;;;;;;;;;;;20.20;45.80;;;;;;5007409;28;19922;-66
2023/10/08 13:30:04;;;;;;;;;;;20.20;45.90;;;;;;5012019;28;20325;-66
2023/10/08 13:32:31;;;;;;;;;;;20.20;45.90;;;;;;5011362;28;20402;-65
2023/10/08 13:34:58;;;;;;;;;;;20.20;46.00;;;;;;5008786;28;19928;-65
2023/10/08 13:37:27;;;;;;;;;;;20.30;46.10;;;;;;5012123;28;20013;-65
2023/10/08 13:39:53;;;;;;;;;;;20.30;46.70;;;;;;5012561;28;19921;-65
2023/10/08 13:42:20;;;;;;;;;;;20.30;46.20;;;;;;5010847;28;19952;-66
2023/10/08 13:44:48;;;;;;;;;;;20.30;46.20;;;;;;5011576;28;19925;-65
2023/10/08 13:47:16;;;;;;;;;;;20.30;46.30;;;;;;5010183;28;19921;-65
2023/10/08 13:49:43;;;;;;;;;;;20.40;46.40;;;;;;5003090;28;19971;-66
2023/10/08 13:52:10;;;;;;;;;;;20.40;46.30;;;;;;5029900;28;20278;-67
2023/10/08 13:54:41;;;;;;;;;;;20.40;46.40;;;;;;5011974;28;19925;-69
2023/10/08 13:57:08;;;;;;;;;;;20.40;46.40;;;;;;5012710;28;19921;-67
2023/10/08 13:59:37;;;;;;;;;;;20.40;46.40;;;;;;5012143;28;19960;-67
2023/10/08 14:02:14;;;;;;;;;;;20.40;46.40;;;;;;5030697;28;19925;-67
2023/10/08 14:04:43;;;;;;;;;;;20.40;46.40;;;;;;5027650;28;19964;-67
2023/10/08 14:07:11;;;;;;;;;;;20.40;46.40;;;;;;5013315;28;19975;-67
2023/10/08 14:09:41;;;;;;;;;;;20.40;46.40;;;;;;5030412;28;19927;-67
2023/10/08 14:12:10;;;;;;;;;;;20.40;46.40;;;;;;5012562;28;20660;-67
2023/10/08 14:14:40;;;;;;;;;;;20.40;46.40;;;;;;5012179;28;19956;-68
2023/10/08 14:17:07;;;;;;;;;;;20.40;46.40;;;;;;5030526;28;20068;-68
2023/10/08 14:19:39;;;;;;;;;;;20.40;46.40;;;;;;5012175;28;19921;-68
2023/10/08 14:22:08;;;;;;;;;;;20.50;46.40;;;;;;5011847;28;19928;-68
2023/10/08 14:24:37;;;;;;;;;;;20.50;47.00;;;;;;5012643;28;19925;-68
2023/10/08 14:27:09;;;;;;;;;;;20.50;46.40;;;;;;5012645;28;19921;-67
2023/10/08 14:29:38;;;;;;;;;;;20.50;46.40;;;;;;5012642;28;20389;-67
2023/10/08 14:32:08;;;;;;;;;;;20.50;46.40;;;;;;5030733;28;19928;-67
2023/10/08 14:43:01;;;;;;;;;;;20.50;46.40;;;;;;5012409;28;19936;-68
2023/10/08 14:45:31;;;;;;;;;;;20.50;46.50;;;;;;5012438;28;20020;-67
2023/10/08 14:47:58;;;;;;;;;;;20.50;46.40;;;;;;5013045;28;19925;-67
2023/10/08 14:50:27;;;;;;;;;;;20.50;46.40;;;;;;5011382;28;19925;-67
2023/10/08 14:52:54;;;;;;;;;;;20.50;46.50;;;;;;5012529;28;19936;-67
2023/10/08 14:55:22;;;;;;;;;;;20.50;46.40;;;;;;5012008;28;19921;-67
2023/10/08 14:57:52;;;;;;;;;;;20.50;46.40;;;;;;5024221;28;20278;-68
2023/10/08 15:00:24;;;;;;;;;;;20.50;46.50;;;;;;5030642;28;19929;-67
2023/10/08 15:02:51;;;;;;;;;;;20.50;46.40;;;;;;5013501;28;19944;-67